sensor_id;sensor_type;location;lat;lon;timestamp;temperature;humidity
20891;DHT22;10605;52.968;8.844;2022-09-16T00:01:11;11.40;99.90
20891;DHT22;10605;52.968;8.844;2022-09-16T00:03:37;11.40;99.90
20891;DHT22;10605;52.968;8.844;2022-09-16T00:06:03;11.40;99.90
20891;DHT22;10605;52.968;8.844;2022-09-16T00:08:28;11.40;99.90
20891;DHT22;10605;52.968;8.844;2022-09-16T00:11:00;11.30;99.90
20891;DHT22;10605;52.968;8.844;2022-09-16T00:13:26;11.30;99.90
20891;DHT22;10605;52.968;8.844;2022-09-16T00:15:52;11.40;99.90
20891;DHT22;10605;52.968;8.844;2022-09-16T00:18:18;11.40;99.90
20891;DHT22;10605;52.968;8.844;2022-09-16T00:20:49;11.40;99.90
20891;DHT22;10605;52.968;8.844;2022-09-16T00:23:16;11.40;99.90
20891;DHT22;10605;52.968;8.844;2022-09-16T00:25:42;11.30;99.90
20891;DHT22;10605;52.968;8.844;2022-09-16T00:28:08;11.30;99.90
20891;DHT22;10605;52.968;8.844;2022-09-16T00:30:33;11.20;99.90
20891;DHT22;10605;52.968;8.844;2022-09-16T00:32:59;11.20;99.90
20891;DHT22;10605;52.968;8.844;2022-09-16T00:35:24;11.20;99.90
20891;DHT22;10605;52.968;8.844;2022-09-16T00:37:50;11.20;99.90
20891;DHT22;10605;52.968;8.844;2022-09-16T00:40:16;11.10;99.90
20891;DHT22;10605;52.968;8.844;2022-09-16T00:42:41;11.10;99.90
20891;DHT22;10605;52.968;8.844;2022-09-16T00:45:22;11.20;99.90
20891;DHT22;10605;52.968;8.844;2022-09-16T00:48:04;11.10;99.90
20891;DHT22;10605;52.968;8.844;2022-09-16T00:50:55;11.10;99.90
20891;DHT22;10605;52.968;8.844;2022-09-16T00:53:27;11.00;99.90
20891;DHT22;10605;52.968;8.844;2022-09-16T00:55:55;11.10;99.90
20891;DHT22;10605;52.968;8.844;2022-09-16T01:00:50;11.10;99.90
20891;DHT22;10605;52.968;8.844;2022-09-16T01:03:16;11.20;99.90
20891;DHT22;10605;52.968;8.844;2022-09-16T01:05:43;11.20;99.90
20891;DHT22;10605;52.968;8.844;2022-09-16T01:08:09;11.20;99.90
20891;DHT22;10605;52.968;8.844;2022-09-16T01:10:35;11.20;99.90
20891;DHT22;10605;52.968;8.844;2022-09-16T01:13:04;11.10;99.90
20891;DHT22;10605;52.968;8.844;2022-09-16T01:23:40;11.10;99.90
20891;DHT22;10605;52.968;8.844;2022-09-16T01:34:34;11.30;99.90
20891;DHT22;10605;52.968;8.844;2022-09-16T01:40:32;11.20;99.90
20891;DHT22;10605;52.968;8.844;2022-09-16T01:48:43;11.20;99.90
20891;DHT22;10605;52.968;8.844;2022-09-16T01:59:55;11.30;99.90
20891;DHT22;10605;52.968;8.844;2022-09-16T02:02:28;11.40;99.90
20891;DHT22;10605;52.968;8.844;2022-09-16T02:04:57;11.40;99.90
20891;DHT22;10605;52.968;8.844;2022-09-16T02:07:31;11.30;99.90
20891;DHT22;10605;52.968;8.844;2022-09-16T02:10:06;11.30;99.90
20891;DHT22;10605;52.968;8.844;2022-09-16T02:12:37;11.30;99.90
20891;DHT22;10605;52.968;8.844;2022-09-16T02:15:07;11.40;99.90
20891;DHT22;10605;52.968;8.844;2022-09-16T02:17:39;11.40;99.90
20891;DHT22;10605;52.968;8.844;2022-09-16T02:20:11;11.40;99.90
20891;DHT22;10605;52.968;8.844;2022-09-16T02:22:43;11.40;99.90
20891;DHT22;10605;52.968;8.844;2022-09-16T02:25:10;11.40;99.90
20891;DHT22;10605;52.968;8.844;2022-09-16T02:27:38;11.40;99.90
20891;DHT22;10605;52.968;8.844;2022-09-16T02:30:11;11.40;99.90
20891;DHT22;10605;52.968;8.844;2022-09-16T02:32:42;11.40;99.90
20891;DHT22;10605;52.968;8.844;2022-09-16T02:35:15;11.40;99.90
20891;DHT22;10605;52.968;8.844;2022-09-16T02:37:54;11.50;99.90
20891;DHT22;10605;52.968;8.844;2022-09-16T02:40:28;11.50;99.90
20891;DHT22;10605;52.968;8.844;2022-09-16T02:42:56;11.50;99.90
20891;DHT22;10605;52.968;8.844;2022-09-16T02:45:27;11.40;99.90
20891;DHT22;10605;52.968;8.844;2022-09-16T02:48:06;11.50;99.90
20891;DHT22;10605;52.968;8.844;2022-09-16T02:53:35;11.60;99.90
20891;DHT22;10605;52.968;8.844;2022-09-16T02:56:20;11.50;99.90
20891;DHT22;10605;52.968;8.844;2022-09-16T02:58:47;11.50;99.90
20891;DHT22;10605;52.968;8.844;2022-09-16T03:01:13;11.60;99.90
20891;DHT22;10605;52.968;8.844;2022-09-16T03:03:39;11.50;99.90
20891;DHT22;10605;52.968;8.844;2022-09-16T03:08:32;11.50;99.90
20891;DHT22;10605;52.968;8.844;2022-09-16T03:11:08;11.60;99.90
20891;DHT22;10605;52.968;8.844;2022-09-16T03:19:15;11.50;99.90
20891;DHT22;10605;52.968;8.844;2022-09-16T03:25:22;11.40;99.90
20891;DHT22;10605;52.968;8.844;2022-09-16T03:27:35;11.40;99.90
20891;DHT22;10605;52.968;8.844;2022-09-16T03:30:07;11.40;99.90
20891;DHT22;10605;52.968;8.844;2022-09-16T03:32:46;11.30;99.90
20891;DHT22;10605;52.968;8.844;2022-09-16T03:37:39;11.40;99.90
20891;DHT22;10605;52.968;8.844;2022-09-16T03:40:11;11.30;99.90
20891;DHT22;10605;52.968;8.844;2022-09-16T03:42:39;11.30;99.90
20891;DHT22;10605;52.968;8.844;2022-09-16T03:45:06;11.30;99.90
20891;DHT22;10605;52.968;8.844;2022-09-16T03:47:32;11.30;99.90
20891;DHT22;10605;52.968;8.844;2022-09-16T03:49:58;11.40;99.90
20891;DHT22;10605;52.968;8.844;2022-09-16T03:52:23;11.40;99.90
20891;DHT22;10605;52.968;8.844;2022-09-16T03:54:49;11.40;99.90
20891;DHT22;10605;52.968;8.844;2022-09-16T03:57:14;11.30;99.90
20891;DHT22;10605;52.968;8.844;2022-09-16T03:59:40;11.40;99.90
20891;DHT22;10605;52.968;8.844;2022-09-16T04:02:06;11.30;99.90
20891;DHT22;10605;52.968;8.844;2022-09-16T04:04:32;11.30;99.90
20891;DHT22;10605;52.968;8.844;2022-09-16T04:06:57;11.30;99.90
20891;DHT22;10605;52.968;8.844;2022-09-16T04:09:23;11.30;99.90
20891;DHT22;10605;52.968;8.844;2022-09-16T04:11:48;11.20;99.90
20891;DHT22;10605;52.968;8.844;2022-09-16T04:14:14;11.20;99.90
20891;DHT22;10605;52.968;8.844;2022-09-16T04:16:40;11.30;99.90
20891;DHT22;10605;52.968;8.844;2022-09-16T04:19:06;11.30;99.90
20891;DHT22;10605;52.968;8.844;2022-09-16T04:21:32;11.20;99.90
20891;DHT22;10605;52.968;8.844;2022-09-16T04:23:58;11.20;99.90
20891;DHT22;10605;52.968;8.844;2022-09-16T04:26:23;11.20;99.90
20891;DHT22;10605;52.968;8.844;2022-09-16T04:28:52;11.20;99.90
20891;DHT22;10605;52.968;8.844;2022-09-16T04:31:19;11.20;99.90
20891;DHT22;10605;52.968;8.844;2022-09-16T04:33:44;11.20;99.90
20891;DHT22;10605;52.968;8.844;2022-09-16T04:36:16;11.10;99.90
20891;DHT22;10605;52.968;8.844;2022-09-16T04:38:44;11.10;99.90
20891;DHT22;10605;52.968;8.844;2022-09-16T04:41:16;11.00;99.90
20891;DHT22;10605;52.968;8.844;2022-09-16T04:43:42;11.00;99.90
20891;DHT22;10605;52.968;8.844;2022-09-16T04:46:08;11.10;99.90
20891;DHT22;10605;52.968;8.844;2022-09-16T04:48:34;11.10;99.90
20891;DHT22;10605;52.968;8.844;2022-09-16T04:51:10;11.10;99.90
20891;DHT22;10605;52.968;8.844;2022-09-16T04:53:38;11.10;99.90
20891;DHT22;10605;52.968;8.844;2022-09-16T04:56:12;11.00;99.90
20891;DHT22;10605;52.968;8.844;2022-09-16T04:58:44;10.90;99.90
20891;DHT22;10605;52.968;8.844;2022-09-16T05:01:13;10.90;99.90
20891;DHT22;10605;52.968;8.844;2022-09-16T05:03:47;10.90;99.90
20891;DHT22;10605;52.968;8.844;2022-09-16T05:06:25;10.90;99.90
20891;DHT22;10605;52.968;8.844;2022-09-16T05:08:52;10.80;99.90
20891;DHT22;10605;52.968;8.844;2022-09-16T05:11:26;10.80;99.90
20891;DHT22;10605;52.968;8.844;2022-09-16T05:13:52;10.70;99.90
20891;DHT22;10605;52.968;8.844;2022-09-16T05:16:20;10.80;99.90
20891;DHT22;10605;52.968;8.844;2022-09-16T05:18:47;10.80;99.90
20891;DHT22;10605;52.968;8.844;2022-09-16T05:21:18;10.70;99.90
20891;DHT22;10605;52.968;8.844;2022-09-16T05:23:45;10.80;99.90
20891;DHT22;10605;52.968;8.844;2022-09-16T05:26:16;10.80;99.90
20891;DHT22;10605;52.968;8.844;2022-09-16T05:28:42;10.80;99.90
20891;DHT22;10605;52.968;8.844;2022-09-16T05:33:35;11.00;99.90
20891;DHT22;10605;52.968;8.844;2022-09-16T05:36:08;11.10;99.90
20891;DHT22;10605;52.968;8.844;2022-09-16T05:38:35;11.30;99.90
20891;DHT22;10605;52.968;8.844;2022-09-16T05:41:01;11.50;99.90
20891;DHT22;10605;52.968;8.844;2022-09-16T05:43:27;11.60;99.90
20891;DHT22;10605;52.968;8.844;2022-09-16T05:45:54;11.70;99.90
20891;DHT22;10605;52.968;8.844;2022-09-16T05:48:20;11.80;99.90
20891;DHT22;10605;52.968;8.844;2022-09-16T05:53:18;12.20;99.90
20891;DHT22;10605;52.968;8.844;2022-09-16T05:55:54;12.20;99.90
20891;DHT22;10605;52.968;8.844;2022-09-16T05:58:20;12.40;99.90
20891;DHT22;10605;52.968;8.844;2022-09-16T06:00:46;12.50;99.90
20891;DHT22;10605;52.968;8.844;2022-09-16T06:03:11;12.60;99.90
20891;DHT22;10605;52.968;8.844;2022-09-16T06:05:37;12.80;99.90
20891;DHT22;10605;52.968;8.844;2022-09-16T06:08:02;13.20;99.90
20891;DHT22;10605;52.968;8.844;2022-09-16T06:10:28;13.30;99.90
20891;DHT22;10605;52.968;8.844;2022-09-16T06:12:53;13.40;99.90
20891;DHT22;10605;52.968;8.844;2022-09-16T06:15:20;13.70;99.90
20891;DHT22;10605;52.968;8.844;2022-09-16T06:17:45;13.90;99.90
20891;DHT22;10605;52.968;8.844;2022-09-16T06:20:11;14.10;99.90
20891;DHT22;10605;52.968;8.844;2022-09-16T06:22:39;14.60;99.90
20891;DHT22;10605;52.968;8.844;2022-09-16T06:25:05;15.00;99.90
20891;DHT22;10605;52.968;8.844;2022-09-16T06:27:31;15.30;99.90
20891;DHT22;10605;52.968;8.844;2022-09-16T06:29:57;15.80;99.90
20891;DHT22;10605;52.968;8.844;2022-09-16T06:32:23;15.90;99.90
20891;DHT22;10605;52.968;8.844;2022-09-16T06:34:49;15.60;99.90
20891;DHT22;10605;52.968;8.844;2022-09-16T06:37:15;15.00;99.90
20891;DHT22;10605;52.968;8.844;2022-09-16T06:39:41;15.10;99.90
20891;DHT22;10605;52.968;8.844;2022-09-16T06:42:07;15.50;99.90
20891;DHT22;10605;52.968;8.844;2022-09-16T06:44:33;15.80;99.90
20891;DHT22;10605;52.968;8.844;2022-09-16T06:46:59;16.10;99.90
20891;DHT22;10605;52.968;8.844;2022-09-16T06:49:24;16.60;99.90
20891;DHT22;10605;52.968;8.844;2022-09-16T06:51:50;16.80;99.90
20891;DHT22;10605;52.968;8.844;2022-09-16T06:54:16;16.90;99.90
20891;DHT22;10605;52.968;8.844;2022-09-16T06:56:42;17.30;99.90
20891;DHT22;10605;52.968;8.844;2022-09-16T06:59:09;17.60;99.90
20891;DHT22;10605;52.968;8.844;2022-09-16T07:01:35;18.00;99.90
20891;DHT22;10605;52.968;8.844;2022-09-16T07:04:03;18.10;99.90
20891;DHT22;10605;52.968;8.844;2022-09-16T07:06:30;18.20;99.90
20891;DHT22;10605;52.968;8.844;2022-09-16T07:08:57;18.40;99.90
20891;DHT22;10605;52.968;8.844;2022-09-16T07:11:23;18.90;99.90
20891;DHT22;10605;52.968;8.844;2022-09-16T07:13:49;19.70;99.90
20891;DHT22;10605;52.968;8.844;2022-09-16T07:16:18;19.20;99.90
20891;DHT22;10605;52.968;8.844;2022-09-16T07:18:44;17.80;99.90
20891;DHT22;10605;52.968;8.844;2022-09-16T07:21:15;17.90;99.90
20891;DHT22;10605;52.968;8.844;2022-09-16T07:23:55;17.10;99.90
20891;DHT22;10605;52.968;8.844;2022-09-16T07:26:24;16.40;99.90
20891;DHT22;10605;52.968;8.844;2022-09-16T07:28:51;17.30;99.90
20891;DHT22;10605;52.968;8.844;2022-09-16T07:31:19;18.30;99.90
20891;DHT22;10605;52.968;8.844;2022-09-16T07:33:49;18.90;99.90
20891;DHT22;10605;52.968;8.844;2022-09-16T07:36:17;19.60;99.90
20891;DHT22;10605;52.968;8.844;2022-09-16T07:38:43;19.80;99.90
20891;DHT22;10605;52.968;8.844;2022-09-16T07:41:12;20.00;99.90
20891;DHT22;10605;52.968;8.844;2022-09-16T07:43:39;19.90;99.90
20891;DHT22;10605;52.968;8.844;2022-09-16T07:46:06;20.40;99.90
20891;DHT22;10605;52.968;8.844;2022-09-16T07:48:32;20.40;99.90
20891;DHT22;10605;52.968;8.844;2022-09-16T07:51:00;20.40;99.90
20891;DHT22;10605;52.968;8.844;2022-09-16T07:53:27;20.30;99.90
20891;DHT22;10605;52.968;8.844;2022-09-16T07:55:55;20.30;99.90
20891;DHT22;10605;52.968;8.844;2022-09-16T07:58:20;21.10;99.90
20891;DHT22;10605;52.968;8.844;2022-09-16T08:00:48;19.70;99.90
20891;DHT22;10605;52.968;8.844;2022-09-16T08:03:14;20.20;99.90
20891;DHT22;10605;52.968;8.844;2022-09-16T08:05:40;20.60;99.90
20891;DHT22;10605;52.968;8.844;2022-09-16T08:08:06;20.40;99.90
20891;DHT22;10605;52.968;8.844;2022-09-16T08:10:31;21.10;99.90
20891;DHT22;10605;52.968;8.844;2022-09-16T08:12:57;21.80;99.90
20891;DHT22;10605;52.968;8.844;2022-09-16T08:15:23;21.80;99.90
20891;DHT22;10605;52.968;8.844;2022-09-16T08:17:48;21.90;99.90
20891;DHT22;10605;52.968;8.844;2022-09-16T08:20:14;21.50;99.90
20891;DHT22;10605;52.968;8.844;2022-09-16T08:22:40;22.00;99.90
20891;DHT22;10605;52.968;8.844;2022-09-16T08:25:06;22.00;99.90
20891;DHT22;10605;52.968;8.844;2022-09-16T08:27:35;22.40;99.90
20891;DHT22;10605;52.968;8.844;2022-09-16T08:30:01;22.70;99.90
20891;DHT22;10605;52.968;8.844;2022-09-16T08:32:27;22.80;99.90
20891;DHT22;10605;52.968;8.844;2022-09-16T08:34:52;22.50;99.90
20891;DHT22;10605;52.968;8.844;2022-09-16T08:37:18;22.90;99.90
20891;DHT22;10605;52.968;8.844;2022-09-16T08:39:46;23.20;99.90
20891;DHT22;10605;52.968;8.844;2022-09-16T08:45:02;23.80;99.90
20891;DHT22;10605;52.968;8.844;2022-09-16T08:50:38;23.70;99.90
20891;DHT22;10605;52.968;8.844;2022-09-16T08:55:50;23.50;99.50
20891;DHT22;10605;52.968;8.844;2022-09-16T08:58:24;23.50;99.50
20891;DHT22;10605;52.968;8.844;2022-09-16T09:01:01;24.00;98.80
20891;DHT22;10605;52.968;8.844;2022-09-16T09:03:37;24.60;97.90
20891;DHT22;10605;52.968;8.844;2022-09-16T09:17:55;25.70;89.80
20891;DHT22;10605;52.968;8.844;2022-09-16T09:28:46;23.10;90.00
20891;DHT22;10605;52.968;8.844;2022-09-16T09:39:46;24.40;85.60
20891;DHT22;10605;52.968;8.844;2022-09-16T09:42:44;25.60;81.30
20891;DHT22;10605;52.968;8.844;2022-09-16T09:48:17;25.40;82.90
20891;DHT22;10605;52.968;8.844;2022-09-16T09:50:47;26.00;78.30
20891;DHT22;10605;52.968;8.844;2022-09-16T09:53:35;24.20;78.90
20891;DHT22;10605;52.968;8.844;2022-09-16T09:58:47;26.00;76.70
20891;DHT22;10605;52.968;8.844;2022-09-16T10:01:14;24.80;74.40
20891;DHT22;10605;52.968;8.844;2022-09-16T10:03:40;25.90;73.90
20891;DHT22;10605;52.968;8.844;2022-09-16T10:06:11;23.90;71.10
20891;DHT22;10605;52.968;8.844;2022-09-16T10:08:48;22.50;79.10
20891;DHT22;10605;52.968;8.844;2022-09-16T10:11:48;21.20;84.80
20891;DHT22;10605;52.968;8.844;2022-09-16T10:14:40;23.30;82.20
20891;DHT22;10605;52.968;8.844;2022-09-16T10:17:15;23.30;76.80
20891;DHT22;10605;52.968;8.844;2022-09-16T10:19:57;21.90;83.20
20891;DHT22;10605;52.968;8.844;2022-09-16T10:22:32;21.30;86.70
20891;DHT22;10605;52.968;8.844;2022-09-16T10:25:01;25.10;76.60
20891;DHT22;10605;52.968;8.844;2022-09-16T10:27:36;25.70;69.80
20891;DHT22;10605;52.968;8.844;2022-09-16T10:30:16;23.40;74.50
20891;DHT22;10605;52.968;8.844;2022-09-16T10:32:55;24.10;75.90
20891;DHT22;10605;52.968;8.844;2022-09-16T10:35:26;25.80;69.30
20891;DHT22;10605;52.968;8.844;2022-09-16T10:37:55;27.60;66.50
20891;DHT22;10605;52.968;8.844;2022-09-16T10:40:22;26.20;62.20
20891;DHT22;10605;52.968;8.844;2022-09-16T10:42:53;23.60;65.40
20891;DHT22;10605;52.968;8.844;2022-09-16T10:47:57;22.70;73.10
20891;DHT22;10605;52.968;8.844;2022-09-16T10:50:24;22.10;75.10
20891;DHT22;10605;52.968;8.844;2022-09-16T10:52:50;20.60;78.40
20891;DHT22;10605;52.968;8.844;2022-09-16T10:57:53;19.50;82.70
20891;DHT22;10605;52.968;8.844;2022-09-16T11:00:21;19.30;86.50
20891;DHT22;10605;52.968;8.844;2022-09-16T11:03:26;20.20;87.50
20891;DHT22;10605;52.968;8.844;2022-09-16T11:11:46;23.30;78.90
20891;DHT22;10605;52.968;8.844;2022-09-16T11:14:59;23.40;76.90
20891;DHT22;10605;52.968;8.844;2022-09-16T11:23:33;25.80;61.10
20891;DHT22;10605;52.968;8.844;2022-09-16T11:29:48;26.80;56.00
20891;DHT22;10605;52.968;8.844;2022-09-16T11:38:27;28.90;54.60
20891;DHT22;10605;52.968;8.844;2022-09-16T11:42:03;28.10;53.20
20891;DHT22;10605;52.968;8.844;2022-09-16T11:44:41;27.60;53.40
20891;DHT22;10605;52.968;8.844;2022-09-16T11:47:24;26.70;56.00
20891;DHT22;10605;52.968;8.844;2022-09-16T11:56:04;28.40;53.80
20891;DHT22;10605;52.968;8.844;2022-09-16T12:01:35;24.90;56.20
20891;DHT22;10605;52.968;8.844;2022-09-16T12:04:14;24.30;59.40
20891;DHT22;10605;52.968;8.844;2022-09-16T12:06:54;27.50;52.70
20891;DHT22;10605;52.968;8.844;2022-09-16T12:09:39;28.00;52.20
20891;DHT22;10605;52.968;8.844;2022-09-16T12:12:13;28.40;51.30
20891;DHT22;10605;52.968;8.844;2022-09-16T12:14:54;27.50;50.20
20891;DHT22;10605;52.968;8.844;2022-09-16T12:17:41;26.70;49.30
20891;DHT22;10605;52.968;8.844;2022-09-16T12:20:18;28.00;50.70
20891;DHT22;10605;52.968;8.844;2022-09-16T12:22:53;28.60;50.50
20891;DHT22;10605;52.968;8.844;2022-09-16T12:26:01;28.40;51.40
20891;DHT22;10605;52.968;8.844;2022-09-16T12:28:53;28.60;47.50
20891;DHT22;10605;52.968;8.844;2022-09-16T12:34:02;25.30;49.00
20891;DHT22;10605;52.968;8.844;2022-09-16T12:36:32;23.30;57.00
20891;DHT22;10605;52.968;8.844;2022-09-16T12:38:59;25.30;54.10
20891;DHT22;10605;52.968;8.844;2022-09-16T12:47:30;28.50;45.20
20891;DHT22;10605;52.968;8.844;2022-09-16T13:03:59;19.30;80.70
20891;DHT22;10605;52.968;8.844;2022-09-16T13:06:30;19.60;81.30
20891;DHT22;10605;52.968;8.844;2022-09-16T13:11:40;19.80;78.40
20891;DHT22;10605;52.968;8.844;2022-09-16T13:14:20;19.50;77.90
20891;DHT22;10605;52.968;8.844;2022-09-16T13:16:56;19.40;81.20
20891;DHT22;10605;52.968;8.844;2022-09-16T13:19:40;20.00;77.80
20891;DHT22;10605;52.968;8.844;2022-09-16T13:23:17;20.40;74.40
20891;DHT22;10605;52.968;8.844;2022-09-16T13:25:19;20.70;73.80
20891;DHT22;10605;52.968;8.844;2022-09-16T13:28:03;20.40;71.40
20891;DHT22;10605;52.968;8.844;2022-09-16T13:30:46;20.30;71.10
20891;DHT22;10605;52.968;8.844;2022-09-16T13:35:49;20.60;72.10
20891;DHT22;10605;52.968;8.844;2022-09-16T13:41:00;19.70;75.40
20891;DHT22;10605;52.968;8.844;2022-09-16T13:43:29;19.00;76.30
20891;DHT22;10605;52.968;8.844;2022-09-16T13:46:12;18.20;87.40
20891;DHT22;10605;52.968;8.844;2022-09-16T13:51:36;16.90;99.90
20891;DHT22;10605;52.968;8.844;2022-09-16T13:54:03;17.10;99.90
20891;DHT22;10605;52.968;8.844;2022-09-16T13:57:02;17.40;99.90
20891;DHT22;10605;52.968;8.844;2022-09-16T14:13:33;17.60;99.90
20891;DHT22;10605;52.968;8.844;2022-09-16T14:27:30;16.50;99.90
20891;DHT22;10605;52.968;8.844;2022-09-16T14:34:24;16.20;99.90
20891;DHT22;10605;52.968;8.844;2022-09-16T14:54:26;16.00;99.90
20891;DHT22;10605;52.968;8.844;2022-09-16T14:57:44;15.60;99.90
20891;DHT22;10605;52.968;8.844;2022-09-16T15:00:15;15.60;99.90
20891;DHT22;10605;52.968;8.844;2022-09-16T15:05:47;15.40;99.90
20891;DHT22;10605;52.968;8.844;2022-09-16T15:11:33;15.00;99.90
20891;DHT22;10605;52.968;8.844;2022-09-16T15:13:59;14.90;99.90
20891;DHT22;10605;52.968;8.844;2022-09-16T15:16:26;14.80;99.90
20891;DHT22;10605;52.968;8.844;2022-09-16T15:19:00;14.80;99.90
20891;DHT22;10605;52.968;8.844;2022-09-16T15:21:29;14.70;99.90
20891;DHT22;10605;52.968;8.844;2022-09-16T15:24:00;14.70;99.90
20891;DHT22;10605;52.968;8.844;2022-09-16T15:26:30;14.50;99.90
20891;DHT22;10605;52.968;8.844;2022-09-16T15:29:12;14.40;99.90
20891;DHT22;10605;52.968;8.844;2022-09-16T15:31:40;14.20;99.90
20891;DHT22;10605;52.968;8.844;2022-09-16T15:36:54;14.00;99.90
20891;DHT22;10605;52.968;8.844;2022-09-16T15:39:38;14.00;99.90
20891;DHT22;10605;52.968;8.844;2022-09-16T15:44:45;13.70;99.90
20891;DHT22;10605;52.968;8.844;2022-09-16T15:47:23;13.60;99.90
20891;DHT22;10605;52.968;8.844;2022-09-16T15:49:54;13.50;99.90
20891;DHT22;10605;52.968;8.844;2022-09-16T15:52:21;13.60;99.90
20891;DHT22;10605;52.968;8.844;2022-09-16T15:54:57;13.60;99.90
20891;DHT22;10605;52.968;8.844;2022-09-16T16:00:00;13.30;99.90
20891;DHT22;10605;52.968;8.844;2022-09-16T16:02:59;13.20;99.90
20891;DHT22;10605;52.968;8.844;2022-09-16T16:05:28;13.20;99.90
20891;DHT22;10605;52.968;8.844;2022-09-16T16:08:01;13.20;99.90
20891;DHT22;10605;52.968;8.844;2022-09-16T16:10:30;13.10;99.90
20891;DHT22;10605;52.968;8.844;2022-09-16T16:12:58;13.00;99.90
20891;DHT22;10605;52.968;8.844;2022-09-16T16:15:29;13.00;99.90
20891;DHT22;10605;52.968;8.844;2022-09-16T16:18:00;13.10;99.90
20891;DHT22;10605;52.968;8.844;2022-09-16T16:20:36;13.00;99.90
20891;DHT22;10605;52.968;8.844;2022-09-16T16:23:02;13.00;99.90
20891;DHT22;10605;52.968;8.844;2022-09-16T16:25:49;13.00;99.90
20891;DHT22;10605;52.968;8.844;2022-09-16T16:29:08;13.00;99.90
20891;DHT22;10605;52.968;8.844;2022-09-16T16:32:15;13.20;99.90
20891;DHT22;10605;52.968;8.844;2022-09-16T16:38:16;13.10;99.90
20891;DHT22;10605;52.968;8.844;2022-09-16T16:41:40;13.00;99.90
20891;DHT22;10605;52.968;8.844;2022-09-16T16:47:45;12.80;99.90
20891;DHT22;10605;52.968;8.844;2022-09-16T16:51:09;12.80;99.90
20891;DHT22;10605;52.968;8.844;2022-09-16T16:53:48;12.80;99.90
20891;DHT22;10605;52.968;8.844;2022-09-16T16:56:43;12.80;99.90
20891;DHT22;10605;52.968;8.844;2022-09-16T17:05:50;12.60;99.90
20891;DHT22;10605;52.968;8.844;2022-09-16T17:09:16;12.50;99.90
20891;DHT22;10605;52.968;8.844;2022-09-16T17:11:58;12.40;99.90
20891;DHT22;10605;52.968;8.844;2022-09-16T17:14:49;12.40;99.90
20891;DHT22;10605;52.968;8.844;2022-09-16T17:17:58;12.30;99.90
20891;DHT22;10605;52.968;8.844;2022-09-16T17:20:51;12.30;99.90
20891;DHT22;10605;52.968;8.844;2022-09-16T17:27:27;12.20;99.90
20891;DHT22;10605;52.968;8.844;2022-09-16T17:29:54;12.10;99.90
20891;DHT22;10605;52.968;8.844;2022-09-16T17:32:19;12.10;99.90
20891;DHT22;10605;52.968;8.844;2022-09-16T17:34:45;12.10;99.90
20891;DHT22;10605;52.968;8.844;2022-09-16T17:37:11;12.10;99.90
20891;DHT22;10605;52.968;8.844;2022-09-16T17:39:38;12.10;99.90
20891;DHT22;10605;52.968;8.844;2022-09-16T17:42:04;12.10;99.90
20891;DHT22;10605;52.968;8.844;2022-09-16T17:44:30;12.10;99.90
20891;DHT22;10605;52.968;8.844;2022-09-16T17:46:56;12.10;99.90
20891;DHT22;10605;52.968;8.844;2022-09-16T17:49:23;12.00;99.90
20891;DHT22;10605;52.968;8.844;2022-09-16T17:51:52;12.00;99.90
20891;DHT22;10605;52.968;8.844;2022-09-16T17:54:18;12.00;99.90
20891;DHT22;10605;52.968;8.844;2022-09-16T17:56:44;12.10;99.90
20891;DHT22;10605;52.968;8.844;2022-09-16T17:59:11;12.10;99.90
20891;DHT22;10605;52.968;8.844;2022-09-16T18:01:37;12.10;99.90
20891;DHT22;10605;52.968;8.844;2022-09-16T18:04:03;12.20;99.90
20891;DHT22;10605;52.968;8.844;2022-09-16T18:06:31;12.20;99.90
20891;DHT22;10605;52.968;8.844;2022-09-16T18:09:00;12.20;99.90
20891;DHT22;10605;52.968;8.844;2022-09-16T18:11:26;12.10;99.90
20891;DHT22;10605;52.968;8.844;2022-09-16T18:13:56;12.10;99.90
20891;DHT22;10605;52.968;8.844;2022-09-16T18:16:22;12.10;99.90
20891;DHT22;10605;52.968;8.844;2022-09-16T18:18:50;12.10;99.90
20891;DHT22;10605;52.968;8.844;2022-09-16T18:21:17;12.10;99.90
20891;DHT22;10605;52.968;8.844;2022-09-16T18:23:45;12.10;99.90
20891;DHT22;10605;52.968;8.844;2022-09-16T18:26:13;12.10;99.90
20891;DHT22;10605;52.968;8.844;2022-09-16T18:28:41;12.10;99.90
20891;DHT22;10605;52.968;8.844;2022-09-16T18:31:18;12.10;99.90
20891;DHT22;10605;52.968;8.844;2022-09-16T18:33:45;12.10;99.90
20891;DHT22;10605;52.968;8.844;2022-09-16T18:36:13;12.10;99.90
20891;DHT22;10605;52.968;8.844;2022-09-16T18:38:40;12.10;99.90
20891;DHT22;10605;52.968;8.844;2022-09-16T18:43:39;12.10;99.90
20891;DHT22;10605;52.968;8.844;2022-09-16T18:46:11;12.10;99.90
20891;DHT22;10605;52.968;8.844;2022-09-16T18:48:39;12.20;99.90
20891;DHT22;10605;52.968;8.844;2022-09-16T18:51:05;12.20;99.90
20891;DHT22;10605;52.968;8.844;2022-09-16T18:53:31;12.10;99.90
20891;DHT22;10605;52.968;8.844;2022-09-16T18:55:57;12.20;99.90
20891;DHT22;10605;52.968;8.844;2022-09-16T18:58:23;12.20;99.90
20891;DHT22;10605;52.968;8.844;2022-09-16T19:00:49;12.20;99.90
20891;DHT22;10605;52.968;8.844;2022-09-16T19:03:15;12.20;99.90
20891;DHT22;10605;52.968;8.844;2022-09-16T19:05:41;12.20;99.90
20891;DHT22;10605;52.968;8.844;2022-09-16T19:08:07;12.20;99.90
20891;DHT22;10605;52.968;8.844;2022-09-16T19:10:32;12.20;99.90
20891;DHT22;10605;52.968;8.844;2022-09-16T19:12:59;12.20;99.90
20891;DHT22;10605;52.968;8.844;2022-09-16T19:15:26;12.20;99.90
20891;DHT22;10605;52.968;8.844;2022-09-16T19:17:53;12.20;99.90
20891;DHT22;10605;52.968;8.844;2022-09-16T19:20:19;12.20;99.90
20891;DHT22;10605;52.968;8.844;2022-09-16T19:22:45;12.20;99.90
20891;DHT22;10605;52.968;8.844;2022-09-16T19:25:10;12.10;99.90
20891;DHT22;10605;52.968;8.844;2022-09-16T19:27:37;12.20;99.90
20891;DHT22;10605;52.968;8.844;2022-09-16T19:30:04;12.20;99.90
20891;DHT22;10605;52.968;8.844;2022-09-16T19:32:29;12.20;99.90
20891;DHT22;10605;52.968;8.844;2022-09-16T19:34:55;12.20;99.90
20891;DHT22;10605;52.968;8.844;2022-09-16T19:37:21;12.20;99.90
20891;DHT22;10605;52.968;8.844;2022-09-16T19:39:46;12.20;99.90
20891;DHT22;10605;52.968;8.844;2022-09-16T19:42:12;12.20;99.90
20891;DHT22;10605;52.968;8.844;2022-09-16T19:44:37;12.20;99.90
20891;DHT22;10605;52.968;8.844;2022-09-16T19:47:03;12.20;99.90
20891;DHT22;10605;52.968;8.844;2022-09-16T19:49:29;12.20;99.90
20891;DHT22;10605;52.968;8.844;2022-09-16T19:51:54;12.20;99.90
20891;DHT22;10605;52.968;8.844;2022-09-16T19:54:20;12.20;99.90
20891;DHT22;10605;52.968;8.844;2022-09-16T19:56:48;12.20;99.90
20891;DHT22;10605;52.968;8.844;2022-09-16T19:59:14;12.20;99.90
20891;DHT22;10605;52.968;8.844;2022-09-16T20:01:40;12.20;99.90
20891;DHT22;10605;52.968;8.844;2022-09-16T20:04:07;12.20;99.90
20891;DHT22;10605;52.968;8.844;2022-09-16T20:06:36;12.20;99.90
20891;DHT22;10605;52.968;8.844;2022-09-16T20:09:05;12.20;99.90